createdAt,value
2017-10-03T00:05:57.364Z,15.89
2017-10-03T00:07:07.380Z,15.96
2017-10-03T00:08:17.723Z,15.96
2017-10-03T00:09:27.732Z,15.86
2017-10-03T00:10:37.748Z,16.02
2017-10-03T00:11:48.139Z,15.91
2017-10-03T00:12:58.462Z,15.98
2017-10-03T00:14:08.483Z,16.1
2017-10-03T00:15:18.516Z,16.07
2017-10-03T00:16:28.858Z,16.07
2017-10-03T00:17:38.965Z,15.98
2017-10-03T00:18:49.292Z,15.96
2017-10-03T00:19:59.617Z,15.98
2017-10-03T00:21:09.978Z,16.04
2017-10-03T00:22:20.325Z,16.02
2017-10-03T00:23:30.713Z,16.04
2017-10-03T00:24:40.715Z,16.07
2017-10-03T00:25:50.726Z,16.04
2017-10-03T00:27:00.745Z,15.99
2017-10-03T00:28:11.104Z,16.08
2017-10-03T00:29:21.456Z,16.1
2017-10-03T00:30:31.480Z,16.07
2017-10-03T00:31:41.496Z,16.16
2017-10-03T00:32:51.527Z,16.06
2017-10-03T00:34:01.542Z,16.17
2017-10-03T00:35:11.575Z,16.13
2017-10-03T00:36:21.607Z,16.13
2017-10-03T00:37:31.662Z,16.22
2017-10-03T00:38:41.707Z,16.14
2017-10-03T00:39:52.062Z,16.13
2017-10-03T00:41:02.160Z,16.26
2017-10-03T00:42:12.497Z,16.14
2017-10-03T00:43:22.526Z,16.17
2017-10-03T00:44:32.864Z,16.07
2017-10-03T00:45:42.885Z,16.11
2017-10-03T00:46:52.898Z,16.02
2017-10-03T00:48:02.919Z,16.02
2017-10-03T00:49:13.271Z,15.98
2017-10-03T00:50:22.988Z,15.98
2017-10-03T00:51:33.024Z,15.95
2017-10-03T00:52:43.096Z,16.1
2017-10-03T00:53:54.139Z,15.96
2017-10-03T00:55:04.471Z,16.04
2017-10-03T00:56:14.485Z,15.99
2017-10-03T00:57:24.820Z,16.11
2017-10-03T00:58:35.151Z,16.07
2017-10-03T00:59:45.481Z,16.11
2017-10-03T01:00:55.833Z,15.93
2017-10-03T01:02:05.846Z,15.95
2017-10-03T01:03:15.879Z,15.98
2017-10-03T01:04:26.194Z,16.1
2017-10-03T01:05:36.212Z,15.99
2017-10-03T01:06:46.244Z,16.1
2017-10-03T01:07:56.574Z,16.21
2017-10-03T01:09:06.920Z,16.13
2017-10-03T01:10:17.307Z,16.17
2017-10-03T01:11:27.326Z,16.13
2017-10-03T01:12:37.022Z,16.04
2017-10-03T01:13:47.369Z,15.99
2017-10-03T01:14:57.384Z,16
2017-10-03T01:16:07.761Z,15.88
2017-10-03T01:17:17.778Z,15.84
2017-10-03T01:18:28.121Z,15.84
2017-10-03T01:19:38.470Z,15.74
2017-10-03T01:20:48.868Z,15.78
2017-10-03T01:21:59.201Z,15.8
2017-10-03T01:23:09.534Z,15.75
2017-10-03T01:24:19.865Z,15.84
2017-10-03T01:25:29.891Z,15.77
2017-10-03T01:26:40.242Z,15.84
2017-10-03T01:27:50.259Z,15.81
2017-10-03T01:29:00.588Z,15.86
2017-10-03T01:30:10.992Z,15.8
2017-10-03T01:31:21.424Z,15.88
2017-10-03T01:32:31.477Z,15.89
2017-10-03T01:33:41.869Z,15.98
2017-10-03T01:34:51.920Z,15.86
2017-10-03T01:36:02.268Z,15.91
2017-10-03T01:37:12.295Z,15.81
2017-10-03T01:38:22.332Z,15.78
2017-10-03T01:39:32.409Z,15.81
2017-10-03T01:40:42.426Z,15.83
2017-10-03T01:41:52.775Z,15.77
2017-10-03T01:43:02.847Z,15.86
2017-10-03T01:44:13.188Z,15.75
2017-10-03T01:45:23.537Z,15.78
2017-10-03T01:46:33.865Z,15.75
2017-10-03T01:47:44.190Z,15.74
2017-10-03T01:48:54.527Z,15.77
2017-10-03T01:50:04.549Z,15.77
2017-10-03T01:51:14.892Z,15.86
2017-10-03T01:52:25.231Z,15.8
2017-10-03T01:53:35.581Z,15.77
2017-10-03T01:54:45.924Z,15.88
2017-10-03T01:55:55.942Z,15.81
2017-10-03T01:57:06.277Z,15.88
2017-10-03T01:58:16.610Z,15.89
2017-10-03T01:59:26.626Z,15.92
2017-10-03T02:00:36.980Z,15.96
2017-10-03T02:01:47.037Z,15.96
2017-10-03T02:02:57.426Z,15.96
2017-10-03T02:04:07.759Z,16.02
2017-10-03T02:05:18.093Z,16.1
2017-10-03T02:06:28.113Z,16
2017-10-03T02:07:38.452Z,16.04
2017-10-03T02:08:48.807Z,16.1
2017-10-03T02:09:58.824Z,16.08
2017-10-03T02:11:08.579Z,16.11
2017-10-03T02:12:18.597Z,16.02
2017-10-03T02:13:28.632Z,16
2017-10-03T02:14:38.729Z,16
2017-10-03T02:15:48.746Z,15.99
2017-10-03T02:16:59.079Z,15.96
2017-10-03T02:18:09.419Z,15.93
2017-10-03T02:19:19.742Z,15.96
2017-10-03T02:20:30.136Z,15.89
2017-10-03T02:21:40.475Z,15.88
2017-10-03T02:22:50.817Z,15.88
2017-10-03T02:24:01.156Z,15.86
2017-10-03T02:25:11.501Z,15.88
2017-10-03T02:26:21.884Z,15.93
2017-10-03T02:27:32.220Z,15.92
2017-10-03T02:28:42.241Z,15.83
2017-10-03T02:29:52.589Z,15.91
2017-10-03T02:31:02.924Z,15.93
2017-10-03T02:32:13.302Z,15.93
2017-10-03T02:33:23.640Z,15.96
2017-10-03T02:34:33.977Z,15.98
2017-10-03T02:35:43.998Z,15.95
2017-10-03T02:36:54.342Z,15.84
2017-10-03T02:38:04.682Z,15.91
2017-10-03T02:39:15.038Z,15.91
2017-10-03T02:40:25.068Z,15.89
2017-10-03T02:41:35.400Z,15.92
2017-10-03T02:42:45.421Z,15.83
2017-10-03T02:43:55.500Z,15.89
2017-10-03T02:45:05.833Z,15.8
2017-10-03T02:46:16.180Z,15.8
2017-10-03T02:47:26.520Z,15.89
2017-10-03T02:48:36.875Z,15.8
2017-10-03T02:49:47.282Z,15.92
2017-10-03T02:50:57.606Z,15.88
2017-10-03T02:52:07.932Z,15.8
2017-10-03T02:53:18.289Z,15.75
2017-10-03T02:54:28.321Z,15.67
2017-10-03T02:55:38.042Z,15.62
2017-10-03T02:56:48.369Z,15.63
2017-10-03T02:57:58.380Z,15.49
2017-10-03T02:59:08.398Z,15.45
2017-10-03T03:00:18.744Z,15.27
2017-10-03T03:01:28.773Z,15.25
2017-10-03T03:33:21.067Z,11.82
2017-10-03T03:34:31.395Z,11.86
2017-10-03T03:35:41.719Z,11.76
2017-10-03T03:36:52.040Z,11.82
2017-10-03T03:38:02.366Z,11.86
2017-10-03T03:39:12.115Z,11.91
2017-10-03T03:40:22.130Z,12.03
2017-10-03T03:41:32.469Z,12.18
2017-10-03T03:42:42.804Z,12.18
2017-10-03T03:43:52.825Z,12.26
2017-10-03T03:45:03.154Z,12.44
2017-10-03T03:46:13.187Z,12.51
2017-10-03T03:47:23.525Z,12.63
2017-10-03T03:48:33.541Z,12.73
2017-10-03T03:49:43.877Z,12.69
2017-10-03T03:50:53.580Z,12.92
2017-10-03T03:52:03.587Z,12.89
2017-10-03T03:53:13.911Z,12.95
2017-10-03T03:54:23.916Z,13.06
2017-10-03T03:55:34.243Z,13.13
2017-10-03T03:56:44.571Z,13.16
2017-10-03T03:57:54.898Z,13.19
2017-10-03T03:59:04.916Z,13.25
2017-10-03T04:00:15.248Z,13.37
2017-10-03T04:01:25.585Z,13.31
2017-10-03T04:02:35.972Z,13.35
2017-10-03T04:03:45.999Z,13.36
2017-10-03T04:04:56.337Z,13.44
2017-10-03T04:06:06.728Z,13.51
2017-10-03T04:07:17.054Z,13.54
2017-10-03T04:08:27.126Z,13.55
2017-10-03T04:09:37.484Z,13.42
2017-10-03T04:10:47.501Z,13.45
2017-10-03T04:11:57.508Z,13.5
2017-10-03T04:13:07.852Z,13.5
2017-10-03T04:14:17.606Z,13.42
2017-10-03T04:15:27.626Z,13.45
2017-10-03T04:16:37.658Z,13.54
2017-10-03T04:17:47.982Z,13.54
2017-10-03T04:18:58.315Z,13.57
2017-10-03T04:20:08.653Z,13.5
2017-10-03T04:21:18.677Z,13.47
2017-10-03T04:22:29.030Z,13.47
2017-10-03T04:23:39.056Z,13.6
2017-10-03T04:24:49.397Z,13.54
2017-10-03T04:25:59.795Z,13.47
2017-10-03T04:27:10.134Z,13.58
2017-10-03T04:28:20.153Z,13.62
2017-10-03T04:29:30.496Z,13.58
2017-10-03T04:30:40.829Z,13.62
2017-10-03T04:31:51.167Z,13.55
2017-10-03T04:33:01.513Z,13.57
2017-10-03T04:34:11.211Z,13.54
2017-10-03T04:35:21.531Z,13.54
2017-10-03T04:36:31.870Z,13.55
2017-10-03T04:37:41.931Z,13.55
2017-10-03T04:38:51.955Z,13.6
2017-10-03T04:40:02.319Z,13.58
2017-10-03T04:41:12.332Z,13.54
2017-10-03T04:42:22.663Z,13.5
2017-10-03T04:43:33.048Z,13.55
2017-10-03T04:44:43.394Z,13.51
2017-10-03T04:45:53.402Z,13.62
2017-10-03T04:47:03.417Z,13.63
2017-10-03T04:48:14.602Z,13.53
2017-10-03T04:49:24.670Z,13.57
2017-10-03T04:50:34.687Z,13.62
2017-10-03T04:51:45.021Z,13.69
2017-10-03T04:52:55.361Z,13.6
2017-10-03T04:54:05.416Z,13.65
2017-10-03T04:55:15.782Z,13.66
2017-10-03T04:56:26.138Z,13.66
2017-10-03T04:57:36.181Z,13.68
2017-10-03T04:58:46.533Z,13.7
2017-10-03T04:59:56.578Z,13.69
2017-10-03T05:01:06.646Z,13.68
2017-10-03T05:02:16.661Z,13.76
2017-10-03T05:03:26.994Z,13.72
2017-10-03T05:04:37.360Z,13.72
2017-10-03T05:05:47.697Z,13.63
2017-10-03T05:06:58.090Z,13.58
2017-10-03T05:08:07.802Z,13.62
2017-10-03T05:09:18.140Z,13.68
2017-10-03T05:10:27.840Z,13.76
2017-10-03T05:11:37.858Z,13.6
2017-10-03T05:12:48.192Z,13.63
2017-10-03T05:13:58.237Z,13.58
2017-10-03T05:15:08.248Z,13.68
2017-10-03T05:16:18.258Z,13.69
2017-10-03T05:17:28.598Z,13.76
2017-10-03T05:18:38.991Z,13.78
2017-10-03T05:19:49.016Z,13.87
2017-10-03T05:20:59.395Z,13.81
2017-10-03T05:22:09.742Z,13.81
2017-10-03T05:23:20.070Z,13.84
2017-10-03T05:24:30.457Z,13.79
2017-10-03T05:25:40.482Z,13.9
2017-10-03T05:26:50.829Z,13.84
2017-10-03T05:28:00.528Z,13.86
2017-10-03T05:29:10.547Z,13.86
2017-10-03T05:30:20.946Z,13.86
2017-10-03T05:31:31.276Z,13.9
2017-10-03T05:32:41.302Z,14.03
2017-10-03T05:33:51.004Z,13.99
2017-10-03T05:35:01.347Z,14.02
2017-10-03T05:36:11.753Z,14.08
2017-10-03T05:37:22.095Z,14.09
2017-10-03T05:38:32.429Z,14.2
2017-10-03T05:39:42.755Z,14.23
2017-10-03T05:40:53.081Z,14.23
2017-10-03T05:42:03.458Z,14.26
2017-10-03T05:43:13.494Z,14.21
2017-10-03T05:44:23.825Z,14.26
2017-10-03T05:45:33.837Z,14.27
2017-10-03T05:46:43.870Z,14.33
2017-10-03T05:47:54.197Z,14.31
2017-10-03T05:49:03.899Z,14.33
2017-10-03T05:50:15.071Z,14.31
2017-10-03T05:51:25.404Z,14.34
2017-10-03T05:52:35.733Z,14.44
2017-10-03T05:53:45.770Z,14.46
2017-10-03T05:54:55.777Z,14.46
2017-10-03T05:56:06.130Z,14.48
2017-10-03T05:57:16.176Z,14.49
2017-10-03T05:58:26.508Z,14.64
2017-10-03T05:59:36.576Z,14.6
2017-10-03T06:00:46.895Z,14.71
2017-10-03T06:01:57.219Z,14.64
2017-10-03T06:03:07.536Z,14.7
2017-10-03T06:04:17.547Z,14.67
2017-10-03T06:05:27.929Z,14.64
2017-10-03T06:06:38.274Z,14.63
2017-10-03T06:07:48.291Z,14.63
2017-10-03T06:08:58.621Z,14.66
2017-10-03T06:10:08.640Z,14.66
2017-10-03T06:11:18.982Z,14.7
2017-10-03T06:12:29.324Z,14.71
2017-10-03T06:13:39.342Z,14.67
2017-10-03T06:14:49.363Z,14.7
2017-10-03T06:15:59.379Z,14.7
2017-10-03T06:17:09.759Z,14.7
2017-10-03T06:18:20.086Z,14.69
2017-10-03T06:19:30.425Z,14.61
2017-10-03T06:20:40.777Z,14.74
2017-10-03T06:21:51.113Z,14.59
2017-10-03T06:23:01.182Z,14.7
2017-10-03T06:24:11.506Z,14.7
2017-10-03T06:25:21.856Z,14.66
2017-10-03T06:26:32.195Z,14.69
2017-10-03T06:27:42.537Z,14.71
2017-10-03T06:28:52.859Z,14.71
2017-10-03T06:30:03.190Z,14.77
2017-10-03T06:31:13.218Z,14.9
2017-10-03T06:32:23.236Z,14.9
2017-10-03T06:33:33.568Z,14.87
2017-10-03T06:34:43.943Z,15.04
2017-10-03T06:35:53.978Z,15.08
2017-10-03T06:37:04.000Z,15.1
2017-10-03T06:38:14.324Z,15.07
2017-10-03T06:39:24.344Z,15.13
2017-10-03T06:40:33.738Z,15.16
2017-10-03T06:41:43.738Z,15.08
2017-10-03T06:42:54.076Z,14.98
2017-10-03T06:44:04.407Z,14.9
2017-10-03T06:45:14.752Z,14.98
2017-10-03T06:46:24.800Z,14.87
2017-10-03T06:47:34.817Z,14.9
2017-10-03T06:48:45.154Z,14.83
2017-10-03T06:49:55.489Z,14.8
2017-10-03T06:51:05.838Z,14.8
2017-10-03T06:52:16.218Z,14.82
2017-10-03T06:53:26.551Z,14.83
2017-10-03T06:54:36.249Z,14.97
2017-10-03T06:55:46.278Z,14.89
2017-10-03T06:56:56.300Z,14.9
2017-10-03T06:58:06.682Z,14.86
2017-10-03T06:59:17.029Z,14.85
2017-10-03T07:00:27.371Z,14.9
2017-10-03T07:01:37.398Z,14.85
2017-10-03T07:02:47.777Z,14.97
2017-10-03T07:03:57.860Z,15.01
2017-10-03T07:05:07.892Z,15.01
2017-10-03T07:06:18.231Z,15.1
2017-10-03T07:07:28.577Z,15.08
2017-10-03T07:08:38.915Z,15.1
2017-10-03T07:09:49.440Z,15.19
2017-10-03T07:10:59.452Z,15.15
2017-10-03T07:12:09.468Z,15.13
2017-10-03T07:13:19.174Z,15.15
2017-10-03T07:14:28.873Z,15.12
2017-10-03T07:15:38.937Z,15.26
2017-10-03T07:16:49.280Z,15.26
2017-10-03T07:17:59.611Z,15.23
2017-10-03T07:19:09.949Z,15.31
2017-10-03T07:20:20.296Z,15.34
2017-10-03T07:21:30.665Z,15.37
2017-10-03T07:22:40.695Z,15.43
2017-10-03T07:23:50.706Z,15.45
2017-10-03T07:25:01.052Z,15.47
2017-10-03T07:26:11.070Z,15.41
2017-10-03T07:27:21.479Z,15.41
2017-10-03T07:28:31.799Z,15.53
2017-10-03T07:29:41.495Z,15.51
2017-10-03T07:30:51.827Z,15.45
2017-10-03T07:32:01.852Z,15.52
2017-10-03T07:33:11.867Z,15.44
2017-10-03T07:34:21.881Z,15.53
2017-10-03T07:35:32.220Z,15.52
2017-10-03T07:36:42.551Z,15.49
2017-10-03T07:37:52.584Z,15.55
2017-10-03T07:39:02.961Z,15.58
2017-10-03T07:40:13.337Z,15.63
2017-10-03T07:41:23.677Z,15.62
2017-10-03T07:42:34.015Z,15.58
2017-10-03T07:43:44.362Z,15.62
2017-10-03T07:44:55.550Z,15.56
2017-10-03T07:46:05.903Z,15.65
2017-10-03T07:47:16.246Z,15.67
2017-10-03T07:48:26.569Z,15.59
2017-10-03T07:49:36.587Z,15.58
2017-10-03T07:50:46.988Z,15.6
2017-10-03T07:51:57.323Z,15.58
2017-10-03T07:53:07.675Z,15.62
2017-10-03T07:54:18.023Z,15.75
2017-10-03T07:55:27.729Z,15.77
2017-10-03T07:56:38.111Z,15.86
2017-10-03T07:57:48.461Z,15.86
2017-10-03T07:58:58.793Z,15.89
2017-10-03T08:00:09.171Z,15.89
2017-10-03T08:01:19.506Z,15.99
2017-10-03T08:02:29.842Z,16.1
2017-10-03T08:03:40.223Z,16.07
2017-10-03T08:04:50.696Z,16.1
2017-10-03T08:06:01.040Z,16.13
2017-10-03T08:07:11.468Z,16.16
2017-10-03T08:08:21.812Z,16.11
2017-10-03T08:09:31.865Z,16.14
2017-10-03T08:10:42.212Z,16.21
2017-10-03T08:11:52.542Z,16.22
2017-10-03T08:13:02.873Z,16.27
2017-10-03T08:14:13.224Z,16.33
2017-10-03T08:15:23.622Z,16.34
2017-10-03T08:16:33.953Z,16.47
2017-10-03T08:17:43.989Z,16.39
2017-10-03T08:18:54.330Z,16.44
2017-10-03T08:20:05.154Z,16.45
2017-10-03T08:21:15.540Z,16.55
2017-10-03T08:22:25.910Z,16.49
2017-10-03T08:23:36.257Z,16.58
2017-10-03T08:24:46.272Z,16.58
2017-10-03T08:25:56.312Z,16.59
2017-10-03T08:27:06.422Z,16.7
2017-10-03T08:28:16.788Z,16.8
2017-10-03T08:29:27.138Z,16.95
2017-10-03T08:30:37.157Z,17.13
2017-10-03T08:31:47.179Z,17.17
2017-10-03T08:32:57.190Z,17.21
2017-10-03T08:34:06.577Z,17.31
2017-10-03T08:35:16.930Z,17.3
2017-10-03T08:36:27.263Z,17.18
2017-10-03T08:37:37.278Z,17.09
2017-10-03T08:38:47.622Z,17
2017-10-03T08:39:57.952Z,16.91
2017-10-03T08:41:08.300Z,16.92
2017-10-03T08:42:18.330Z,16.84
2017-10-03T08:43:28.671Z,16.82
2017-10-03T08:44:39.092Z,16.91
2017-10-03T08:45:49.437Z,16.91
2017-10-03T08:46:59.797Z,17
2017-10-03T08:48:10.066Z,17.02
2017-10-03T08:49:20.107Z,17
2017-10-03T08:50:30.503Z,16.95
2017-10-03T08:51:40.840Z,16.9
2017-10-03T08:52:51.192Z,16.77
2017-10-03T08:54:01.544Z,16.84
2017-10-03T08:55:11.885Z,16.82
2017-10-03T08:56:22.271Z,16.77
2017-10-03T08:57:32.619Z,16.7
2017-10-03T08:58:42.972Z,16.62
2017-10-03T08:59:52.988Z,16.65
2017-10-03T09:01:03.022Z,16.63
2017-10-03T09:02:13.609Z,16.62
2017-10-03T09:03:23.622Z,16.62
2017-10-03T09:04:33.986Z,16.58
2017-10-03T09:05:44.341Z,16.58
2017-10-03T09:06:54.682Z,16.55
2017-10-03T09:08:05.049Z,16.44
2017-10-03T09:09:15.394Z,16.47
2017-10-03T09:10:25.772Z,16.47
2017-10-03T09:11:36.098Z,16.48
2017-10-03T09:12:46.465Z,16.45
2017-10-03T09:13:57.793Z,16.33
2017-10-03T09:15:08.258Z,16.36
2017-10-03T09:16:18.607Z,16.32
2017-10-03T09:17:28.640Z,16.17
2017-10-03T09:18:38.674Z,15.98
2017-10-03T09:19:49.745Z,15.98
2017-10-03T09:20:59.790Z,16.07
2017-10-03T09:22:10.136Z,16
2017-10-03T09:23:19.839Z,16.13
2017-10-03T09:24:30.183Z,16.27
2017-10-03T09:25:40.533Z,16.25
2017-10-03T09:26:50.884Z,16.32
2017-10-03T09:28:01.234Z,16.25
2017-10-03T09:29:11.265Z,16.26
2017-10-03T09:30:21.291Z,16.3
2017-10-03T09:31:31.681Z,16.27
2017-10-03T09:32:42.005Z,16.26
2017-10-03T09:33:52.350Z,16.22
2017-10-03T09:35:02.395Z,16.21
2017-10-03T09:36:12.420Z,16.18
2017-10-03T09:37:22.503Z,16.27
2017-10-03T09:38:32.861Z,16.26
2017-10-03T09:39:43.219Z,16.36
2017-10-03T09:40:53.611Z,16.42
2017-10-03T09:42:03.951Z,16.39
2017-10-03T09:43:14.358Z,16.49
2017-10-03T09:44:24.696Z,16.49
2017-10-03T09:45:35.047Z,16.65
2017-10-03T09:46:45.408Z,16.7
2017-10-03T09:47:55.424Z,16.65
2017-10-03T09:49:05.509Z,16.65
2017-10-03T09:50:15.531Z,16.77
2017-10-03T09:51:25.256Z,16.92
2017-10-03T09:52:35.290Z,17.05
2017-10-03T09:53:45.639Z,17.13
2017-10-03T09:54:55.713Z,17.22
2017-10-03T09:56:06.071Z,17.24
2017-10-03T09:57:16.411Z,17.27
2017-10-03T09:58:26.757Z,17.31
2017-10-03T09:59:37.105Z,17.32
2017-10-03T10:00:47.145Z,17.28
2017-10-03T10:01:57.491Z,17.15
2017-10-03T10:03:07.834Z,17.13
2017-10-03T10:04:18.178Z,17.09
2017-10-03T10:05:29.512Z,17.1
2017-10-03T10:06:39.938Z,17.02
2017-10-03T10:07:50.301Z,17.06
2017-10-03T10:09:00.640Z,16.99
2017-10-03T10:10:10.982Z,16.88
2017-10-03T10:11:21.334Z,16.82
2017-10-03T10:12:31.371Z,16.7
2017-10-03T10:13:40.767Z,16.66
2017-10-03T10:14:51.113Z,16.58
2017-10-03T10:16:01.126Z,16.51
2017-10-03T10:17:11.494Z,16.42
2017-10-03T10:18:21.922Z,16.48
2017-10-03T10:19:32.271Z,16.45
2017-10-03T10:20:42.288Z,16.44
2017-10-03T10:21:52.332Z,16.44
2017-10-03T10:23:02.684Z,16.47
2017-10-03T10:24:12.721Z,16.42
2017-10-03T10:25:22.756Z,16.47
2017-10-03T10:26:33.116Z,16.37
2017-10-03T10:27:43.155Z,16.55
2017-10-03T10:28:53.497Z,16.57
2017-10-03T10:30:03.898Z,16.59
2017-10-03T10:31:13.929Z,16.76
2017-10-03T10:32:23.953Z,16.87
2017-10-03T10:33:34.309Z,16.94
2017-10-03T10:34:44.664Z,16.92
2017-10-03T10:35:55.081Z,16.95
2017-10-03T10:37:05.454Z,16.91
2017-10-03T10:38:15.175Z,16.9
2017-10-03T10:39:25.210Z,16.92
2017-10-03T10:40:35.230Z,16.88
2017-10-03T10:41:45.623Z,16.88
2017-10-03T10:42:55.984Z,16.72
2017-10-03T10:44:06.012Z,16.7
2017-10-03T10:45:16.350Z,16.63
2017-10-03T10:46:26.396Z,16.59
2017-10-03T10:47:36.790Z,16.67
2017-10-03T10:48:47.160Z,16.73
2017-10-03T10:49:57.667Z,16.55
2017-10-03T10:51:07.705Z,16.59
2017-10-03T10:52:18.052Z,16.4
2017-10-03T10:53:28.134Z,16.32
2017-10-03T10:54:38.483Z,16.26
2017-10-03T10:55:48.539Z,16.16
2017-10-03T10:56:58.557Z,15.99
2017-10-03T10:58:08.569Z,15.8
2017-10-03T10:59:18.965Z,15.78
2017-10-03T11:00:29.310Z,15.83
2017-10-03T11:01:39.667Z,15.78
2017-10-03T11:02:49.696Z,15.93
2017-10-03T11:04:00.963Z,15.86
2017-10-03T11:05:11.048Z,15.98
2017-10-03T11:06:21.073Z,15.99
2017-10-03T11:07:31.104Z,15.95
2017-10-03T11:08:40.830Z,15.98
2017-10-03T11:09:51.179Z,16.07
2017-10-03T11:11:01.284Z,16.08
2017-10-03T11:12:11.327Z,16.14
2017-10-03T11:13:21.357Z,16.25
2017-10-03T11:14:31.396Z,16.3
2017-10-03T11:15:41.453Z,16.29
2017-10-03T11:16:51.852Z,16.29
2017-10-03T11:18:02.193Z,16.29
2017-10-03T11:19:12.536Z,16.22
2017-10-03T11:20:22.931Z,16.22
2017-10-03T11:21:33.288Z,16.16
2017-10-03T11:22:43.691Z,16.13
2017-10-03T11:23:54.057Z,16.1
2017-10-03T11:25:04.440Z,15.96
2017-10-03T11:26:14.782Z,16.04
2017-10-03T11:27:25.133Z,16.07
2017-10-03T11:28:35.154Z,15.99
2017-10-03T11:29:45.508Z,15.96
2017-10-03T11:30:56.534Z,16.17
2017-10-03T11:32:06.891Z,16.13
2017-10-03T11:33:17.275Z,16.22
2017-10-03T11:34:27.367Z,16.27
2017-10-03T11:35:37.725Z,16.26
2017-10-03T11:36:48.075Z,16.3
2017-10-03T11:37:58.531Z,16.25
2017-10-03T11:39:08.565Z,16.13
2017-10-03T11:40:18.716Z,16.13
2017-10-03T11:41:29.061Z,16.08
2017-10-03T11:42:39.089Z,15.98
2017-10-03T11:43:49.439Z,15.98
2017-10-03T11:44:59.785Z,16.1
2017-10-03T11:46:09.874Z,16.04
2017-10-03T11:47:20.226Z,16.02
2017-10-03T11:48:29.648Z,16.04
2017-10-03T11:49:39.984Z,15.99
2017-10-03T11:50:50.160Z,16.04
2017-10-03T11:52:00.250Z,16.02
2017-10-03T11:53:10.654Z,15.98
2017-10-03T11:54:21.016Z,15.96
2017-10-03T11:55:31.047Z,15.91
2017-10-03T11:56:41.418Z,15.98
2017-10-03T11:57:51.801Z,15.99
2017-10-03T11:59:02.136Z,15.98
2017-10-03T12:00:13.587Z,15.95
2017-10-03T12:01:24.054Z,16.06
2017-10-03T12:02:34.413Z,16.04
2017-10-03T12:03:44.441Z,16.07
2017-10-03T12:04:54.460Z,16.14
2017-10-03T12:06:04.812Z,16.22
2017-10-03T12:07:15.176Z,16.27
2017-10-03T12:08:25.205Z,16.44
2017-10-03T12:09:35.233Z,16.42
2017-10-03T12:10:45.653Z,16.37
2017-10-03T12:11:55.709Z,16.47
2017-10-03T12:13:05.760Z,16.47
2017-10-03T12:14:16.141Z,16.45
2017-10-03T12:15:26.480Z,16.47
2017-10-03T12:16:37.177Z,16.65
2017-10-03T12:17:47.545Z,16.59
2017-10-03T12:18:58.735Z,16.72
2017-10-03T12:20:09.495Z,16.67
2017-10-03T12:21:19.525Z,16.77
2017-10-03T12:22:31.133Z,16.87
2017-10-03T12:23:42.544Z,16.9
2017-10-03T12:24:52.909Z,16.87
2017-10-03T12:26:03.268Z,16.94
2017-10-03T12:27:13.290Z,16.94
2017-10-03T12:28:23.699Z,17.02
2017-10-03T12:29:34.067Z,17.1
2017-10-03T12:30:44.442Z,17.07
2017-10-03T12:31:54.467Z,17.07
2017-10-03T12:33:04.811Z,17.12
2017-10-03T12:34:14.901Z,17.17
2017-10-03T12:35:27.124Z,17.06
2017-10-03T12:36:38.512Z,17.13
2017-10-03T12:37:48.861Z,17.15
2017-10-03T12:38:59.218Z,17.09
2017-10-03T12:40:09.286Z,17.09
2017-10-03T12:41:19.317Z,17.06
2017-10-03T12:42:29.652Z,17.06
2017-10-03T12:43:39.356Z,17.06
2017-10-03T12:44:49.702Z,17.1
2017-10-03T12:45:59.781Z,17.1
2017-10-03T12:47:10.160Z,17.12
2017-10-03T12:48:19.902Z,17.06
2017-10-03T12:49:30.266Z,17.22
2017-10-03T12:50:39.970Z,17.21
2017-10-03T12:51:50.319Z,17.3
2017-10-03T12:53:00.658Z,17.36
2017-10-03T12:54:11.013Z,17.42
2017-10-03T12:55:21.370Z,17.43
2017-10-03T12:56:31.732Z,17.46
2017-10-03T12:57:42.136Z,17.57
2017-10-03T12:58:52.473Z,17.65
2017-10-03T13:00:02.831Z,17.74
2017-10-03T13:01:13.192Z,17.68
2017-10-03T13:02:23.566Z,17.8
2017-10-03T13:03:34.004Z,17.74
2017-10-03T13:04:44.350Z,17.8
2017-10-03T13:05:54.380Z,17.76
2017-10-03T13:07:04.404Z,17.79
2017-10-03T13:08:14.452Z,17.76
2017-10-03T13:09:24.880Z,17.74
2017-10-03T13:10:35.228Z,17.71
2017-10-03T13:11:45.590Z,17.8
2017-10-03T13:12:55.943Z,17.83
2017-10-03T13:14:06.290Z,17.83
2017-10-03T13:15:16.407Z,17.79
2017-10-03T13:16:26.432Z,17.79
2017-10-03T13:17:36.779Z,17.83
2017-10-03T13:18:47.140Z,17.83
2017-10-03T13:19:57.159Z,17.8
2017-10-03T13:21:07.513Z,17.76
2017-10-03T13:22:17.876Z,17.83
2017-10-03T13:23:28.236Z,17.73
2017-10-03T13:24:38.258Z,17.77
2017-10-03T13:25:48.624Z,17.68
2017-10-03T13:26:59.026Z,17.63
2017-10-03T13:28:09.071Z,17.73
2017-10-03T13:29:19.450Z,17.66
2017-10-03T13:30:29.794Z,17.66
2017-10-03T13:31:40.134Z,17.73
2017-10-03T13:32:50.537Z,17.83
2017-10-03T13:34:00.594Z,17.83
2017-10-03T13:35:10.681Z,17.87
2017-10-03T13:36:20.735Z,17.9
2017-10-03T13:37:30.781Z,17.9
2017-10-03T13:38:41.202Z,17.88
2017-10-03T13:39:51.653Z,17.88
2017-10-03T13:41:01.695Z,17.92
2017-10-03T13:42:12.043Z,17.87
2017-10-03T13:43:22.417Z,17.77
2017-10-03T13:44:32.813Z,17.79
2017-10-03T13:45:43.178Z,17.74
2017-10-03T13:46:53.527Z,17.68
2017-10-03T13:48:03.916Z,17.63
2017-10-03T13:49:13.633Z,17.74
2017-10-03T13:50:24.018Z,17.8
2017-10-03T13:51:34.352Z,17.87
2017-10-03T13:52:44.732Z,17.9
2017-10-03T13:53:55.083Z,17.86
2017-10-03T13:55:04.806Z,17.94
2017-10-03T13:56:14.619Z,18.03
2017-10-03T13:57:24.972Z,17.98
2017-10-03T13:58:35.034Z,17.99
2017-10-03T13:59:45.398Z,18.01
2017-10-03T14:00:55.430Z,18.02
2017-10-03T14:02:05.522Z,18.06
2017-10-03T14:03:15.554Z,18.08
2017-10-03T14:04:25.907Z,17.99
2017-10-03T14:05:35.951Z,18.01
2017-10-03T14:06:45.974Z,17.95
2017-10-03T14:07:56.389Z,17.9
2017-10-03T14:09:06.737Z,17.9
2017-10-03T14:10:16.454Z,17.94
2017-10-03T14:11:26.805Z,17.94
2017-10-03T14:12:36.833Z,17.84
2017-10-03T14:13:46.871Z,17.87
2017-10-03T14:14:56.905Z,17.88
2017-10-03T14:16:07.267Z,17.84
2017-10-03T14:17:17.616Z,17.95
2017-10-03T14:18:27.633Z,17.84
2017-10-03T14:19:37.978Z,17.9
2017-10-03T14:20:48.333Z,17.88
2017-10-03T14:21:58.692Z,17.84
2017-10-03T14:23:08.733Z,17.83
2017-10-03T14:24:19.084Z,17.8
2017-10-03T14:25:29.502Z,17.73
2017-10-03T14:26:39.550Z,17.74
2017-10-03T14:27:49.592Z,17.69
2017-10-03T14:28:59.944Z,17.71
2017-10-03T14:30:10.310Z,17.74
2017-10-03T14:31:20.717Z,17.73
2017-10-03T14:32:31.092Z,17.65
2017-10-03T14:33:41.152Z,17.65
2017-10-03T14:34:51.521Z,17.65
2017-10-03T14:36:01.874Z,17.62
2017-10-03T14:37:11.965Z,17.66
2017-10-03T14:38:22.007Z,17.54
2017-10-03T14:39:32.374Z,17.62
2017-10-03T14:40:42.712Z,17.55
2017-10-03T14:41:53.051Z,17.45
2017-10-03T14:43:03.387Z,17.46
2017-10-03T14:44:13.742Z,17.43
2017-10-03T14:45:24.112Z,17.43
2017-10-03T14:46:34.513Z,17.43
2017-10-03T14:47:44.864Z,17.39
2017-10-03T14:48:55.213Z,17.46
2017-10-03T14:50:05.574Z,17.4
2017-10-03T14:51:15.941Z,17.45
2017-10-03T14:52:26.336Z,17.39
2017-10-03T14:53:36.402Z,17.4
2017-10-03T14:54:46.834Z,17.43
2017-10-03T14:55:56.215Z,17.43
2017-10-03T14:57:06.571Z,17.39
2017-10-03T14:58:16.920Z,17.38
2017-10-03T14:59:27.290Z,17.38
2017-10-03T15:00:37.021Z,17.4
2017-10-03T15:01:47.408Z,17.38
2017-10-03T15:02:57.456Z,17.4
2017-10-03T15:04:07.824Z,17.4
2017-10-03T15:05:18.197Z,17.46
2017-10-03T15:06:28.619Z,17.42
2017-10-03T15:07:38.703Z,17.46
2017-10-03T15:08:49.068Z,17.38
2017-10-03T15:09:59.107Z,17.38
2017-10-03T15:11:09.487Z,17.5
2017-10-03T15:12:19.912Z,17.49
2017-10-03T15:13:30.281Z,17.43
2017-10-03T15:14:40.314Z,17.45
2017-10-03T15:15:50.357Z,17.46
2017-10-03T15:17:00.693Z,17.39
2017-10-03T15:18:11.091Z,17.38
2017-10-03T15:19:21.448Z,17.32
2017-10-03T15:20:31.500Z,17.38
2017-10-03T15:21:41.550Z,17.4
2017-10-03T15:22:51.904Z,17.42
2017-10-03T15:24:02.301Z,17.43
2017-10-03T15:25:12.877Z,17.32
2017-10-03T15:26:24.244Z,17.35
2017-10-03T15:27:34.589Z,17.32
2017-10-03T15:28:44.646Z,17.27
2017-10-03T15:29:54.735Z,17.35
2017-10-03T15:31:05.557Z,17.38
2017-10-03T15:32:15.915Z,17.32
2017-10-03T15:33:26.217Z,17.32
2017-10-03T15:34:37.070Z,17.35
2017-10-03T15:35:47.730Z,17.39
2017-10-03T15:36:58.454Z,17.35
2017-10-03T15:38:08.937Z,17.3
2017-10-03T15:39:19.340Z,17.32
2017-10-03T15:40:29.914Z,17.32
2017-10-03T15:41:40.071Z,17.31
2017-10-03T15:42:50.471Z,17.32
2017-10-03T15:44:00.838Z,17.28
2017-10-03T15:45:11.194Z,17.3